Time,TemperatureF,DewpointF,PressureIn,WindDirection,WindDirectionDegrees,WindSpeedMPH,WindSpeedGustMPH,Humidity,HourlyPrecipIn,Conditions,Clouds,dailyrainin,SoftwareType,DateUTC
2013-11-21 00:01:00,27.1,12.7,0.00,East,91,0.0,0.0,54,0.00,,---,0.00,VWS V13.01,2013-11-21 05:01:00,
2013-11-21 00:02:00,27.3,12.9,0.00,East,95,0.0,0.0,54,0.00,,---,0.00,VWS V13.01,2013-11-21 05:02:00,
2013-11-21 00:07:00,27.3,12.5,0.00,ESE,103,0.0,0.0,53,0.00,,---,0.00,VWS V13.01,2013-11-21 05:07:00,
2013-11-21 00:12:00,27.0,12.1,0.00,ESE,103,0.0,0.0,53,0.00,,---,0.00,VWS V13.01,2013-11-21 05:12:00,
2013-11-21 00:17:00,27.0,12.1,0.00,ESE,118,0.0,0.0,53,0.00,,---,0.00,VWS V13.01,2013-11-21 05:17:00,
2013-11-21 00:22:00,27.0,12.1,0.00,ESE,118,0.0,0.0,53,0.00,,---,0.00,VWS V13.01,2013-11-21 05:22:00,
2013-11-21 00:27:00,27.0,12.1,0.00,ESE,106,0.0,0.0,53,0.00,,---,0.00,VWS V13.01,2013-11-21 05:27:00,
2013-11-21 00:32:00,27.1,12.3,0.00,ESE,106,0.0,0.0,53,0.00,,---,0.00,VWS V13.01,2013-11-21 05:32:00,
2013-11-21 00:37:00,27.0,12.1,0.00,ESE,105,0.0,0.0,53,0.00,,---,0.00,VWS V13.01,2013-11-21 05:37:00,
2013-11-21 00:42:00,26.8,12.0,0.00,ESE,103,0.0,0.0,53,0.00,,---,0.00,VWS V13.01,2013-11-21 05:42:00,
2013-11-21 00:47:00,27.0,12.1,0.00,ESE,103,0.0,0.0,53,0.00,,---,0.00,VWS V13.01,2013-11-21 05:47:00,
2013-11-21 00:52:00,27.0,12.1,0.00,ESE,123,0.0,0.0,53,0.00,,---,0.00,VWS V13.01,2013-11-21 05:52:00,
2013-11-21 00:57:00,27.1,12.3,0.00,East,86,4.0,7.2,53,0.00,,---,0.00,VWS V13.01,2013-11-21 05:57:00,
2013-11-21 01:02:00,27.1,12.3,0.00,East,101,0.0,0.0,53,0.00,,---,0.00,VWS V13.01,2013-11-21 06:02:00,
2013-11-21 01:07:00,27.0,12.1,0.00,ESE,104,0.0,0.0,53,0.00,,---,0.00,VWS V13.01,2013-11-21 06:07:00,
2013-11-21 01:12:00,26.8,12.0,0.00,ESE,102,0.0,0.0,53,0.00,,---,0.00,VWS V13.01,2013-11-21 06:12:00,
2013-11-21 01:17:00,26.8,12.0,0.00,East,99,0.0,0.0,53,0.00,,---,0.00,VWS V13.01,2013-11-21 06:17:00,
2013-11-21 01:22:00,26.8,12.0,0.00,East,99,0.0,0.0,53,0.00,,---,0.00,VWS V13.01,2013-11-21 06:22:00,
2013-11-21 01:27:00,26.4,11.6,0.00,East,99,0.0,0.0,53,0.00,,---,0.00,VWS V13.01,2013-11-21 06:27:00,
2013-11-21 01:32:00,26.4,12.0,0.00,East,99,0.0,0.0,54,0.00,,---,0.00,VWS V13.01,2013-11-21 06:32:00,
2013-11-21 01:37:00,26.6,12.2,0.00,East,99,0.0,0.0,54,0.00,,---,0.00,VWS V13.01,2013-11-21 06:37:00,
2013-11-21 01:42:00,26.4,12.0,0.00,East,99,0.0,0.0,54,0.00,,---,0.00,VWS V13.01,2013-11-21 06:42:00,
2013-11-21 01:47:00,26.4,12.0,0.00,ESE,104,0.0,0.0,54,0.00,,---,0.00,VWS V13.01,2013-11-21 06:47:00,
2013-11-21 01:52:00,26.4,12.0,0.00,ESE,113,4.0,4.8,54,0.00,,---,0.00,VWS V13.01,2013-11-21 06:52:00,
2013-11-21 01:57:00,26.6,12.2,0.00,ESE,106,0.0,0.0,54,0.00,,---,0.00,VWS V13.01,2013-11-21 06:57:00,
2013-11-21 02:02:00,26.4,12.0,0.00,ESE,122,0.0,0.0,54,0.00,,---,0.00,VWS V13.01,2013-11-21 07:02:00,
2013-11-21 02:07:00,26.2,11.4,0.00,ESE,119,0.0,0.0,53,0.00,,---,0.00,VWS V13.01,2013-11-21 07:07:00,
2013-11-21 02:12:00,25.9,11.1,0.00,ESE,119,0.0,0.0,53,0.00,,---,0.00,VWS V13.01,2013-11-21 07:12:00,
2013-11-21 02:17:00,25.7,11.4,0.00,ESE,119,0.0,0.0,54,0.00,,---,0.00,VWS V13.01,2013-11-21 07:17:00,
2013-11-21 02:22:00,25.3,11.0,0.00,ESE,119,0.0,0.0,54,0.00,,---,0.00,VWS V13.01,2013-11-21 07:22:00,
2013-11-21 02:27:00,25.2,10.9,0.00,ESE,119,0.0,0.0,54,0.00,,---,0.00,VWS V13.01,2013-11-21 07:27:00,
2013-11-21 02:32:00,25.3,11.0,0.00,ESE,119,0.0,0.0,54,0.00,,---,0.00,VWS V13.01,2013-11-21 07:32:00,
2013-11-21 02:37:00,24.8,10.5,0.00,ESE,120,0.0,0.0,54,0.00,,---,0.00,VWS V13.01,2013-11-21 07:37:00,
2013-11-21 02:41:00,24.8,10.9,0.00,ESE,120,0.0,0.0,55,0.00,,---,0.00,VWS V13.01,2013-11-21 07:41:00,
2013-11-21 02:46:00,24.6,10.8,0.00,ESE,120,0.0,0.0,55,0.00,,---,0.00,VWS V13.01,2013-11-21 07:46:00,
2013-11-21 02:51:00,24.4,10.6,0.00,ESE,120,0.0,0.0,55,0.00,,---,0.00,VWS V13.01,2013-11-21 07:51:00,
2013-11-21 02:56:00,25.0,11.1,0.00,East,94,0.0,0.0,55,0.00,,---,0.00,VWS V13.01,2013-11-21 07:56:00,
2013-11-21 03:01:00,25.2,10.9,0.00,East,94,0.0,0.0,54,0.00,,---,0.00,VWS V13.01,2013-11-21 08:01:00,
2013-11-21 03:06:00,25.3,11.0,0.00,ESE,108,7.4,8.9,54,0.00,,---,0.00,VWS V13.01,2013-11-21 08:06:00,
2013-11-21 03:11:00,25.3,11.0,0.00,East,86,8.1,9.7,54,0.00,,---,0.00,VWS V13.01,2013-11-21 08:11:00,
2013-11-21 03:16:00,25.5,11.2,0.00,East,84,6.0,7.2,54,0.00,,---,0.00,VWS V13.01,2013-11-21 08:16:00,
2013-11-21 03:21:00,25.7,11.4,0.00,ESE,107,6.0,7.2,54,0.00,,---,0.00,VWS V13.01,2013-11-21 08:21:00,
2013-11-21 03:26:00,25.9,11.5,0.00,SE,127,4.0,4.8,54,0.00,,---,0.00,VWS V13.01,2013-11-21 08:26:00,
2013-11-21 03:31:00,25.9,11.5,0.00,ESE,117,4.0,4.8,54,0.00,,---,0.00,VWS V13.01,2013-11-21 08:31:00,
2013-11-21 03:36:00,25.9,11.1,0.00,East,101,4.0,4.8,53,0.00,,---,0.00,VWS V13.01,2013-11-21 08:36:00,
2013-11-21 03:41:00,26.1,11.3,0.00,ESE,114,4.0,4.8,53,0.00,,---,0.00,VWS V13.01,2013-11-21 08:41:00,
2013-11-21 03:46:00,26.1,11.3,0.00,ESE,111,0.0,0.0,53,0.00,,---,0.00,VWS V13.01,2013-11-21 08:46:00,
2013-11-21 03:51:00,25.9,11.1,0.00,SE,125,0.0,6.4,53,0.00,,---,0.00,VWS V13.01,2013-11-21 08:51:00,
2013-11-21 03:56:00,26.1,11.3,0.00,ESE,118,0.0,0.0,53,0.00,,---,0.00,VWS V13.01,2013-11-21 08:56:00,
2013-11-21 04:01:00,25.7,10.9,0.00,ESE,119,0.0,0.0,53,0.00,,---,0.00,VWS V13.01,2013-11-21 09:01:00,
2013-11-21 04:06:00,25.3,10.6,0.00,ESE,119,0.0,0.0,53,0.00,,---,0.00,VWS V13.01,2013-11-21 09:06:00,
2013-11-21 04:11:00,25.2,10.9,0.00,ESE,119,0.0,0.0,54,0.00,,---,0.00,VWS V13.01,2013-11-21 09:11:00,
2013-11-21 04:16:00,25.0,10.7,0.00,ESE,119,0.0,0.0,54,0.00,,---,0.00,VWS V13.01,2013-11-21 09:16:00,
2013-11-21 04:21:00,24.6,10.4,0.00,ESE,122,0.0,0.0,54,0.00,,---,0.00,VWS V13.01,2013-11-21 09:21:00,
2013-11-21 04:26:00,24.6,10.8,0.00,ESE,120,0.0,0.0,55,0.00,,---,0.00,VWS V13.01,2013-11-21 09:26:00,
2013-11-21 04:31:00,24.4,10.2,0.00,SE,128,4.0,4.8,54,0.00,,---,0.00,VWS V13.01,2013-11-21 09:31:00,
2013-11-21 04:36:00,25.0,10.7,0.00,SE,126,0.0,0.0,54,0.00,,---,0.00,VWS V13.01,2013-11-21 09:36:00,
2013-11-21 04:41:00,25.0,10.7,0.00,SE,125,0.0,0.0,54,0.00,,---,0.00,VWS V13.01,2013-11-21 09:41:00,
2013-11-21 04:46:00,24.8,10.5,0.00,SE,124,0.0,0.0,54,0.00,,---,0.00,VWS V13.01,2013-11-21 09:46:00,
2013-11-21 04:51:00,24.4,10.6,0.00,SE,124,0.0,0.0,55,0.00,,---,0.00,VWS V13.01,2013-11-21 09:51:00,
2013-11-21 04:56:00,23.9,10.1,0.00,SE,124,0.0,0.0,55,0.00,,---,0.00,VWS V13.01,2013-11-21 09:56:00,
2013-11-21 05:01:00,23.7,10.3,0.00,SE,125,0.0,0.0,56,0.00,,---,0.00,VWS V13.01,2013-11-21 10:01:00,
2013-11-21 05:06:00,23.9,10.5,0.00,SE,125,0.0,0.0,56,0.00,,---,0.00,VWS V13.01,2013-11-21 10:06:00,
2013-11-21 05:11:00,24.4,11.0,0.00,ESE,102,5.4,6.4,56,0.00,,---,0.00,VWS V13.01,2013-11-21 10:11:00,
2013-11-21 05:16:00,24.6,11.2,0.00,ESE,111,0.0,0.0,56,0.00,,---,0.00,VWS V13.01,2013-11-21 10:16:00,
2013-11-21 05:21:00,24.8,10.9,0.00,ESE,115,0.0,0.0,55,0.00,,---,0.00,VWS V13.01,2013-11-21 10:21:00,
2013-11-21 05:26:00,25.2,11.3,0.00,ESE,105,0.0,4.0,55,0.00,,---,0.00,VWS V13.01,2013-11-21 10:26:00,
2013-11-21 05:31:00,25.3,11.0,0.00,ESE,105,0.0,4.0,54,0.00,,---,0.00,VWS V13.01,2013-11-21 10:31:00,
2013-11-21 05:36:00,25.5,11.2,0.00,East,101,0.0,0.0,54,0.00,,---,0.00,VWS V13.01,2013-11-21 10:36:00,
2013-11-21 05:41:00,25.7,11.4,0.00,East,94,3.4,6.4,54,0.00,,---,0.00,VWS V13.01,2013-11-21 10:41:00,
2013-11-21 05:46:00,25.9,11.5,0.00,East,100,0.0,4.8,54,0.00,,---,0.00,VWS V13.01,2013-11-21 10:46:00,
2013-11-21 05:51:00,25.9,11.5,0.00,East,93,0.0,0.0,54,0.00,,---,0.00,VWS V13.01,2013-11-21 10:51:00,
2013-11-21 05:56:00,26.1,11.7,0.00,ESE,106,0.0,0.0,54,0.00,,---,0.00,VWS V13.01,2013-11-21 10:56:00,
2013-11-21 06:01:00,25.9,11.5,0.00,ESE,106,0.0,0.0,54,0.00,,---,0.00,VWS V13.01,2013-11-21 11:01:00,
2013-11-21 06:06:00,26.1,11.7,0.00,ESE,105,0.0,0.0,54,0.00,,---,0.00,VWS V13.01,2013-11-21 11:06:00,
2013-11-21 06:11:00,25.9,11.5,0.00,East,101,0.0,0.0,54,0.00,,---,0.00,VWS V13.01,2013-11-21 11:11:00,
2013-11-21 06:16:00,26.1,11.3,0.00,East,92,0.0,0.0,53,0.00,,---,0.00,VWS V13.01,2013-11-21 11:16:00,
2013-11-21 06:21:00,26.1,11.3,0.00,East,92,0.0,0.0,53,0.00,,---,0.00,VWS V13.01,2013-11-21 11:21:00,
2013-11-21 06:26:00,26.1,11.3,0.00,East,93,0.0,0.0,53,0.00,,---,0.00,VWS V13.01,2013-11-21 11:26:00,
2013-11-21 06:31:00,26.1,11.3,0.00,East,92,0.0,0.0,53,0.00,,---,0.00,VWS V13.01,2013-11-21 11:31:00,
2013-11-21 06:36:00,26.1,11.3,0.00,SE,137,0.0,0.0,53,0.00,,---,0.00,VWS V13.01,2013-11-21 11:36:00,
2013-11-21 06:41:00,26.1,11.3,0.00,SE,137,0.0,0.0,53,0.00,,---,0.00,VWS V13.01,2013-11-21 11:41:00,
2013-11-21 06:46:00,26.2,11.4,0.00,East,101,0.0,0.0,53,0.00,,---,0.00,VWS V13.01,2013-11-21 11:46:00,
2013-11-21 06:51:00,26.4,11.6,0.00,East,101,0.0,0.0,53,0.00,,---,0.00,VWS V13.01,2013-11-21 11:51:00,
2013-11-21 06:56:00,26.6,11.8,0.00,ESE,109,0.0,4.0,53,0.00,,---,0.00,VWS V13.01,2013-11-21 11:56:00,
2013-11-21 07:01:00,26.6,11.8,0.00,ESE,103,0.0,4.0,53,0.00,,---,0.00,VWS V13.01,2013-11-21 12:01:00,
2013-11-21 07:06:00,26.6,11.8,0.00,East,96,0.0,0.0,53,0.00,,---,0.00,VWS V13.01,2013-11-21 12:06:00,
2013-11-21 07:11:00,26.8,11.5,0.00,East,98,0.0,0.0,52,0.00,,---,0.00,VWS V13.01,2013-11-21 12:11:00,
2013-11-21 07:16:00,26.2,11.4,0.00,East,98,0.0,0.0,53,0.00,,---,0.00,VWS V13.01,2013-11-21 12:16:00,
2013-11-21 07:21:00,26.1,11.3,0.00,East,97,0.0,0.0,53,0.00,,---,0.00,VWS V13.01,2013-11-21 12:21:00,
2013-11-21 07:26:00,25.9,11.5,0.00,East,97,0.0,0.0,54,0.00,,---,0.00,VWS V13.01,2013-11-21 12:26:00,
2013-11-21 07:31:00,25.9,11.5,0.00,East,98,0.0,0.0,54,0.00,,---,0.00,VWS V13.01,2013-11-21 12:31:00,
2013-11-21 07:36:00,25.9,11.5,0.00,East,98,0.0,0.0,54,0.00,,---,0.00,VWS V13.01,2013-11-21 12:36:00,
2013-11-21 07:41:00,26.1,11.7,0.00,East,98,0.0,0.0,54,0.00,,---,0.00,VWS V13.01,2013-11-21 12:41:00,
2013-11-21 07:46:00,26.4,12.5,0.00,East,98,0.0,0.0,55,0.00,,---,0.00,VWS V13.01,2013-11-21 12:46:00,
2013-11-21 07:51:00,26.8,12.4,0.00,East,98,0.0,0.0,54,0.00,,---,0.00,VWS V13.01,2013-11-21 12:51:00,
2013-11-21 07:56:00,27.0,12.6,0.00,East,98,0.0,0.0,54,0.00,,---,0.00,VWS V13.01,2013-11-21 12:56:00,
2013-11-21 08:01:00,27.5,13.1,0.00,East,99,0.0,0.0,54,0.00,,---,0.00,VWS V13.01,2013-11-21 13:01:00,
2013-11-21 08:06:00,27.9,13.4,0.00,East,99,0.0,0.0,54,0.00,,---,0.00,VWS V13.01,2013-11-21 13:06:00,
2013-11-21 08:11:00,28.6,13.6,0.00,East,100,0.0,0.0,53,0.00,,---,0.00,VWS V13.01,2013-11-21 13:11:00,
2013-11-21 08:16:00,29.1,14.1,0.00,East,100,0.0,0.0,53,0.00,,---,0.00,VWS V13.01,2013-11-21 13:16:00,
2013-11-21 08:21:00,29.8,14.8,0.00,East,100,0.0,0.0,53,0.00,,---,0.00,VWS V13.01,2013-11-21 13:21:00,
2013-11-21 08:26:00,30.0,15.0,0.00,East,100,0.0,0.0,53,0.00,,---,0.00,VWS V13.01,2013-11-21 13:26:00,
2013-11-21 08:31:00,30.0,15.0,0.00,ESE,119,0.0,4.8,53,0.00,,---,0.00,VWS V13.01,2013-11-21 13:31:00,
2013-11-21 08:36:00,30.2,15.1,0.00,SE,135,0.0,4.8,53,0.00,,---,0.00,VWS V13.01,2013-11-21 13:36:00,
2013-11-21 08:40:00,30.9,15.8,0.00,ESE,119,4.0,7.2,53,0.00,,---,0.00,VWS V13.01,2013-11-21 13:40:00,
2013-11-21 08:45:00,32.2,17.0,0.00,SSE,149,4.7,5.6,53,0.00,,---,0.00,VWS V13.01,2013-11-21 13:45:00,
2013-11-21 08:50:00,33.8,18.5,0.00,SE,141,7.4,8.9,53,0.00,,---,0.00,VWS V13.01,2013-11-21 13:50:00,
2013-11-21 08:55:00,34.7,18.9,0.00,SSE,152,4.7,7.2,52,0.00,,---,0.00,VWS V13.01,2013-11-21 13:55:00,
2013-11-21 09:00:00,34.9,19.1,0.00,SSE,150,4.0,6.4,52,0.00,,---,0.00,VWS V13.01,2013-11-21 14:00:00,
2013-11-21 09:05:00,35.2,19.4,0.00,SSE,151,0.0,0.0,52,0.00,,---,0.00,VWS V13.01,2013-11-21 14:05:00,
2013-11-21 09:10:00,35.6,19.3,0.00,SE,130,6.7,8.1,51,0.00,,---,0.00,VWS V13.01,2013-11-21 14:10:00,
2013-11-21 09:15:00,36.1,19.8,0.00,SE,135,0.0,0.0,51,0.00,,---,0.00,VWS V13.01,2013-11-21 14:15:00,
2013-11-21 09:20:00,36.5,20.1,0.00,South,183,3.4,7.2,51,0.00,,---,0.00,VWS V13.01,2013-11-21 14:20:00,
2013-11-21 09:25:00,36.9,20.4,0.00,SSW,199,0.0,0.0,51,0.00,,---,0.00,VWS V13.01,2013-11-21 14:25:00,
2013-11-21 09:30:00,37.2,20.8,0.00,SE,138,0.0,0.0,51,0.00,,---,0.00,VWS V13.01,2013-11-21 14:30:00,
2013-11-21 09:35:00,37.4,20.9,0.00,South,175,0.0,0.0,51,0.00,,---,0.00,VWS V13.01,2013-11-21 14:35:00,
2013-11-21 09:40:00,37.6,21.1,0.00,SE,137,0.0,7.2,51,0.00,,---,0.00,VWS V13.01,2013-11-21 14:40:00,
2013-11-21 09:45:00,37.6,21.1,0.00,SSE,155,0.0,6.4,51,0.00,,---,0.00,VWS V13.01,2013-11-21 14:45:00,
2013-11-21 09:50:00,37.9,21.4,0.00,South,171,0.0,0.0,51,0.00,,---,0.00,VWS V13.01,2013-11-21 14:50:00,
2013-11-21 09:55:00,37.9,21.4,0.00,South,182,0.0,9.7,51,0.00,,---,0.00,VWS V13.01,2013-11-21 14:55:00,
2013-11-21 10:00:00,38.1,21.1,0.00,SSE,168,0.0,7.2,50,0.00,,---,0.00,VWS V13.01,2013-11-21 15:00:00,
2013-11-21 10:05:00,39.0,22.4,0.00,SE,126,0.0,0.0,51,0.00,,---,0.00,VWS V13.01,2013-11-21 15:05:00,
2013-11-21 10:10:00,40.1,23.0,0.00,ESE,111,8.1,9.7,50,0.00,,---,0.00,VWS V13.01,2013-11-21 15:10:00,
2013-11-21 10:15:00,40.6,23.5,0.00,SE,129,5.4,8.9,50,0.00,,---,0.00,VWS V13.01,2013-11-21 15:15:00,
2013-11-21 10:20:00,41.0,23.3,0.00,South,172,0.0,0.0,49,0.00,,---,0.00,VWS V13.01,2013-11-21 15:20:00,
2013-11-21 10:25:00,41.2,23.5,0.00,SE,139,4.7,7.2,49,0.00,,---,0.00,VWS V13.01,2013-11-21 15:25:00,
2013-11-21 10:30:00,42.1,24.3,0.00,SSE,152,5.4,7.2,49,0.00,,---,0.00,VWS V13.01,2013-11-21 15:30:00,
2013-11-21 10:35:00,43.2,24.8,0.00,SE,127,7.4,8.9,48,0.00,,---,0.00,VWS V13.01,2013-11-21 15:35:00,
2013-11-21 10:40:00,43.2,24.8,0.00,SSE,154,4.0,4.8,48,0.00,,---,0.00,VWS V13.01,2013-11-21 15:40:00,
2013-11-21 10:45:00,43.2,24.8,0.00,ESE,108,8.7,10.5,48,0.00,,---,0.00,VWS V13.01,2013-11-21 15:45:00,
2013-11-21 10:50:00,43.0,24.6,0.00,South,184,4.0,4.8,48,0.00,,---,0.00,VWS V13.01,2013-11-21 15:50:00,
2013-11-21 10:55:00,43.5,25.1,0.00,WSW,241,8.1,9.7,48,0.00,,---,0.00,VWS V13.01,2013-11-21 15:55:00,
2013-11-21 11:00:00,43.3,25.0,0.00,SE,143,5.4,7.2,48,0.00,,---,0.00,VWS V13.01,2013-11-21 16:00:00,
2013-11-21 11:05:00,44.1,25.6,0.00,SW,232,5.4,10.5,48,0.00,,---,0.00,VWS V13.01,2013-11-21 16:05:00,
2013-11-21 11:10:00,44.8,25.8,0.00,SSE,155,6.0,8.1,47,0.00,,---,0.00,VWS V13.01,2013-11-21 16:10:00,
2013-11-21 11:15:00,44.6,25.6,0.00,SE,129,5.4,9.7,47,0.00,,---,0.00,VWS V13.01,2013-11-21 16:15:00,
2013-11-21 11:20:00,44.2,25.8,0.00,SSE,166,4.0,11.3,48,0.00,,---,0.00,VWS V13.01,2013-11-21 16:20:00,
2013-11-21 11:25:00,43.9,25.5,0.00,SSE,149,5.4,7.2,48,0.00,,---,0.00,VWS V13.01,2013-11-21 16:25:00,
2013-11-21 11:30:00,44.1,25.6,0.00,SSE,151,0.0,4.8,48,0.00,,---,0.00,VWS V13.01,2013-11-21 16:30:00,
2013-11-21 11:35:00,45.7,27.1,0.00,ESE,116,5.4,10.5,48,0.00,,---,0.00,VWS V13.01,2013-11-21 16:35:00,
2013-11-21 11:40:00,46.6,27.5,0.00,West,276,4.7,5.6,47,0.00,,---,0.00,VWS V13.01,2013-11-21 16:40:00,
2013-11-21 11:45:00,47.3,28.1,0.00,SW,228,0.0,7.2,47,0.00,,---,0.00,VWS V13.01,2013-11-21 16:45:00,
2013-11-21 11:50:00,48.4,29.1,0.00,SW,235,4.7,7.2,47,0.00,,---,0.00,VWS V13.01,2013-11-21 16:50:00,
2013-11-21 11:55:00,49.1,29.2,0.00,SSE,165,5.4,11.3,46,0.00,,---,0.00,VWS V13.01,2013-11-21 16:55:00,
2013-11-21 12:00:00,48.0,28.2,0.00,SW,226,0.0,0.0,46,0.00,,---,0.00,VWS V13.01,2013-11-21 17:00:00,
2013-11-21 12:05:00,47.3,27.6,0.00,West,259,13.1,18.1,46,0.00,,---,0.00,VWS V13.01,2013-11-21 17:05:00,
2013-11-21 12:10:00,46.8,27.1,0.00,SW,217,12.4,14.9,46,0.00,,---,0.00,VWS V13.01,2013-11-21 17:10:00,
2013-11-21 12:15:00,46.4,26.8,0.00,SSW,211,8.7,10.5,46,0.00,,---,0.00,VWS V13.01,2013-11-21 17:15:00,
2013-11-21 12:20:00,46.6,26.9,0.00,SE,145,4.0,4.8,46,0.00,,---,0.00,VWS V13.01,2013-11-21 17:20:00,
2013-11-21 12:25:00,46.0,26.4,0.00,WSW,247,9.4,11.3,46,0.00,,---,0.00,VWS V13.01,2013-11-21 17:25:00,
2013-11-21 12:30:00,46.6,26.9,0.00,SSW,197,3.4,4.0,46,0.00,,---,0.00,VWS V13.01,2013-11-21 17:30:00,
2013-11-21 12:35:00,48.2,28.4,0.00,ESE,121,4.7,8.9,46,0.00,,---,0.00,VWS V13.01,2013-11-21 17:35:00,
2013-11-21 12:40:00,49.1,29.2,0.00,SSW,205,8.1,9.7,46,0.00,,---,0.00,VWS V13.01,2013-11-21 17:40:00,
2013-11-21 12:45:00,49.6,29.2,0.00,SW,214,9.4,11.3,45,0.00,,---,0.00,VWS V13.01,2013-11-21 17:45:00,
2013-11-21 12:50:00,50.2,29.1,0.00,West,274,6.0,10.5,44,0.00,,---,0.00,VWS V13.01,2013-11-21 17:50:00,
2013-11-21 12:55:00,50.7,29.1,0.00,SW,216,4.0,4.8,43,0.00,,---,0.00,VWS V13.01,2013-11-21 17:55:00,
2013-11-21 13:00:00,50.9,29.2,0.00,WSW,251,5.4,7.2,43,0.00,,---,0.00,VWS V13.01,2013-11-21 18:00:00,
2013-11-21 13:05:00,50.7,29.1,0.00,SW,219,4.7,5.6,43,0.00,,---,0.00,VWS V13.01,2013-11-21 18:05:00,
2013-11-21 13:10:00,50.2,28.0,0.00,South,183,0.0,7.2,42,0.00,,---,0.00,VWS V13.01,2013-11-21 18:10:00,
2013-11-21 13:15:00,50.4,28.2,0.00,SSW,196,6.0,7.2,42,0.00,,---,0.00,VWS V13.01,2013-11-21 18:15:00,
2013-11-21 13:20:00,51.6,29.3,0.00,South,178,4.0,10.5,42,0.00,,---,0.00,VWS V13.01,2013-11-21 18:20:00,
2013-11-21 13:25:00,50.7,28.5,0.00,SW,217,8.1,9.7,42,0.00,,---,0.00,VWS V13.01,2013-11-21 18:25:00,
2013-11-21 13:30:00,49.5,27.3,0.00,SW,216,8.7,10.5,42,0.00,,---,0.00,VWS V13.01,2013-11-21 18:30:00,
2013-11-21 13:35:00,48.9,27.4,0.00,WNW,285,0.0,0.0,43,0.00,,---,0.00,VWS V13.01,2013-11-21 18:35:00,
2013-11-21 13:40:00,48.0,26.6,0.00,WSW,237,0.0,0.0,43,0.00,,---,0.00,VWS V13.01,2013-11-21 18:40:00,
2013-11-21 13:45:00,47.7,26.3,0.00,SE,141,4.0,4.8,43,0.00,,---,0.00,VWS V13.01,2013-11-21 18:45:00,
2013-11-21 13:50:00,47.3,26.5,0.00,SSW,209,4.7,7.2,44,0.00,,---,0.00,VWS V13.01,2013-11-21 18:50:00,
2013-11-21 13:55:00,46.8,26.0,0.00,SSE,166,0.0,5.6,44,0.00,,---,0.00,VWS V13.01,2013-11-21 18:55:00,
2013-11-21 14:00:00,46.4,25.7,0.00,South,169,0.0,0.0,44,0.00,,---,0.00,VWS V13.01,2013-11-21 19:00:00,
2013-11-21 14:05:00,46.4,25.7,0.00,South,181,0.0,4.8,44,0.00,,---,0.00,VWS V13.01,2013-11-21 19:05:00,
2013-11-21 14:10:00,46.6,26.4,0.00,SSE,162,0.0,7.2,45,0.00,,---,0.00,VWS V13.01,2013-11-21 19:10:00,
2013-11-21 14:15:00,46.6,26.4,0.00,South,185,0.0,6.4,45,0.00,,---,0.00,VWS V13.01,2013-11-21 19:15:00,
2013-11-21 14:20:00,46.6,26.4,0.00,WSW,239,4.7,5.6,45,0.00,,---,0.00,VWS V13.01,2013-11-21 19:20:00,
2013-11-21 14:25:00,46.8,27.1,0.00,SE,143,8.7,14.5,46,0.00,,---,0.00,VWS V13.01,2013-11-21 19:25:00,
2013-11-21 14:30:00,46.4,26.8,0.00,SSW,193,0.0,14.5,46,0.00,,---,0.00,VWS V13.01,2013-11-21 19:30:00,
2013-11-21 14:35:00,46.0,26.4,0.00,WSW,239,5.4,8.9,46,0.00,,---,0.00,VWS V13.01,2013-11-21 19:35:00,
2013-11-21 14:40:00,46.0,27.0,0.00,SSE,166,0.0,10.5,47,0.00,,---,0.00,VWS V13.01,2013-11-21 19:40:00,
2013-11-21 14:45:00,46.0,27.0,0.00,SSE,153,8.1,9.7,47,0.00,,---,0.00,VWS V13.01,2013-11-21 19:45:00,
2013-11-21 14:50:00,45.9,26.8,0.00,South,178,0.0,0.0,47,0.00,,---,0.00,VWS V13.01,2013-11-21 19:50:00,
2013-11-21 14:55:00,45.9,26.8,0.00,SSE,167,5.4,9.7,47,0.00,,---,0.00,VWS V13.01,2013-11-21 19:55:00,
2013-11-21 15:00:00,45.9,26.8,0.00,SW,214,0.0,5.6,47,0.00,,---,0.00,VWS V13.01,2013-11-21 20:00:00,
2013-11-21 15:05:00,45.7,26.6,0.00,SW,219,4.0,5.6,47,0.00,,---,0.00,VWS V13.01,2013-11-21 20:05:00,
2013-11-21 15:10:00,45.7,26.6,0.00,SE,137,4.7,9.7,47,0.00,,---,0.00,VWS V13.01,2013-11-21 20:10:00,
2013-11-21 15:15:00,45.3,26.3,0.00,SW,220,0.0,0.0,47,0.00,,---,0.00,VWS V13.01,2013-11-21 20:15:00,
2013-11-21 15:20:00,45.1,26.1,0.00,SSE,154,0.0,0.0,47,0.00,,---,0.00,VWS V13.01,2013-11-21 20:20:00,
2013-11-21 15:25:00,45.1,26.1,0.00,SSE,167,0.0,0.0,47,0.00,,---,0.00,VWS V13.01,2013-11-21 20:25:00,
2013-11-21 15:30:00,45.0,26.5,0.00,SSE,160,5.4,6.4,48,0.00,,---,0.00,VWS V13.01,2013-11-21 20:30:00,
2013-11-21 15:35:00,44.8,26.3,0.00,SSW,197,0.0,0.0,48,0.00,,---,0.00,VWS V13.01,2013-11-21 20:35:00,
2013-11-21 15:40:00,44.6,26.1,0.00,SW,227,0.0,0.0,48,0.00,,---,0.00,VWS V13.01,2013-11-21 20:40:00,
2013-11-21 15:45:00,44.6,26.1,0.00,SW,228,0.0,0.0,48,0.00,,---,0.00,VWS V13.01,2013-11-21 20:45:00,
2013-11-21 15:50:00,44.4,26.0,0.00,SSW,209,0.0,0.0,48,0.00,,---,0.00,VWS V13.01,2013-11-21 20:50:00,
2013-11-21 15:55:00,44.2,25.8,0.00,SSW,209,0.0,0.0,48,0.00,,---,0.00,VWS V13.01,2013-11-21 20:55:00,
2013-11-21 16:00:00,44.1,25.6,0.00,SSW,209,0.0,0.0,48,0.00,,---,0.00,VWS V13.01,2013-11-21 21:00:00,
2013-11-21 16:05:00,43.9,26.0,0.00,SSW,209,0.0,0.0,49,0.00,,---,0.00,VWS V13.01,2013-11-21 21:05:00,
2013-11-21 16:10:00,43.7,25.8,0.00,SSW,209,0.0,0.0,49,0.00,,---,0.00,VWS V13.01,2013-11-21 21:10:00,
2013-11-21 16:15:00,43.5,25.6,0.00,SSW,209,0.0,0.0,49,0.00,,---,0.00,VWS V13.01,2013-11-21 21:15:00,
2013-11-21 16:20:00,43.3,25.5,0.00,SSW,209,0.0,0.0,49,0.00,,---,0.00,VWS V13.01,2013-11-21 21:20:00,
2013-11-21 16:25:00,43.3,25.5,0.00,SSW,209,0.0,0.0,49,0.00,,---,0.00,VWS V13.01,2013-11-21 21:25:00,
2013-11-21 16:30:00,43.3,25.5,0.00,SSW,209,0.0,0.0,49,0.00,,---,0.00,VWS V13.01,2013-11-21 21:30:00,
2013-11-21 16:35:00,43.2,25.3,0.00,SSW,209,0.0,0.0,49,0.00,,---,0.00,VWS V13.01,2013-11-21 21:35:00,
2013-11-21 16:40:00,43.2,25.3,0.00,SSW,209,0.0,0.0,49,0.00,,---,0.00,VWS V13.01,2013-11-21 21:40:00,
2013-11-21 16:45:00,43.0,25.6,0.00,SSW,209,0.0,0.0,50,0.00,,---,0.00,VWS V13.01,2013-11-21 21:45:00,
2013-11-21 16:50:00,43.0,25.6,0.00,SSW,209,0.0,0.0,50,0.00,,---,0.00,VWS V13.01,2013-11-21 21:50:00,
2013-11-21 16:55:00,42.8,25.5,0.00,SSW,209,0.0,0.0,50,0.00,,---,0.00,VWS V13.01,2013-11-21 21:55:00,
2013-11-21 17:00:00,43.0,25.6,0.00,SSW,209,0.0,0.0,50,0.00,,---,0.00,VWS V13.01,2013-11-21 22:00:00,
2013-11-21 17:05:00,42.8,25.5,0.00,SSW,209,0.0,0.0,50,0.00,,---,0.00,VWS V13.01,2013-11-21 22:05:00,
2013-11-21 17:10:00,42.8,25.9,0.00,SSE,155,0.0,0.0,51,0.00,,---,0.00,VWS V13.01,2013-11-21 22:10:00,
2013-11-21 17:15:00,42.8,25.9,0.00,SSE,155,0.0,0.0,51,0.00,,---,0.00,VWS V13.01,2013-11-21 22:15:00,
2013-11-21 17:20:00,42.8,25.9,0.00,SSE,155,0.0,0.0,51,0.00,,---,0.00,VWS V13.01,2013-11-21 22:20:00,
2013-11-21 17:25:00,42.6,26.2,0.00,SSE,155,0.0,0.0,52,0.00,,---,0.00,VWS V13.01,2013-11-21 22:25:00,
2013-11-21 17:30:00,42.4,26.5,0.00,SE,141,0.0,0.0,53,0.00,,---,0.00,VWS V13.01,2013-11-21 22:30:00,
2013-11-21 17:35:00,42.8,26.9,0.00,SSE,150,5.4,7.2,53,0.00,,---,0.00,VWS V13.01,2013-11-21 22:35:00,
2013-11-21 17:40:00,43.0,27.0,0.00,SSW,202,0.0,0.0,53,0.00,,---,0.00,VWS V13.01,2013-11-21 22:40:00,
2013-11-21 17:45:00,43.0,26.6,0.00,SSE,153,0.0,0.0,52,0.00,,---,0.00,VWS V13.01,2013-11-21 22:45:00,
2013-11-21 17:50:00,43.0,26.6,0.00,SSE,160,0.0,0.0,52,0.00,,---,0.00,VWS V13.01,2013-11-21 22:50:00,
2013-11-21 17:55:00,42.8,26.4,0.00,South,171,0.0,0.0,52,0.00,,---,0.00,VWS V13.01,2013-11-21 22:55:00,
2013-11-21 18:00:00,42.8,26.4,0.00,South,171,0.0,0.0,52,0.00,,---,0.00,VWS V13.01,2013-11-21 23:00:00,
2013-11-21 18:05:00,42.6,26.7,0.00,South,172,0.0,0.0,53,0.00,,---,0.00,VWS V13.01,2013-11-21 23:05:00,
2013-11-21 18:10:00,42.8,26.4,0.00,SSW,197,0.0,0.0,52,0.00,,---,0.00,VWS V13.01,2013-11-21 23:10:00,
2013-11-21 18:15:00,42.4,26.5,0.00,SSW,197,0.0,0.0,53,0.00,,---,0.00,VWS V13.01,2013-11-21 23:15:00,
2013-11-21 18:20:00,42.3,26.4,0.00,SSW,197,0.0,0.0,53,0.00,,---,0.00,VWS V13.01,2013-11-21 23:20:00,
2013-11-21 18:25:00,42.3,26.4,0.00,South,187,4.0,4.8,53,0.00,,---,0.00,VWS V13.01,2013-11-21 23:25:00,
2013-11-21 18:30:00,42.1,26.2,0.00,South,191,0.0,0.0,53,0.00,,---,0.00,VWS V13.01,2013-11-21 23:30:00,
2013-11-21 18:35:00,42.3,26.8,0.00,South,186,0.0,0.0,54,0.00,,---,0.00,VWS V13.01,2013-11-21 23:35:00,
2013-11-21 18:40:00,42.4,27.0,0.00,SSW,209,0.0,0.0,54,0.00,,---,0.00,VWS V13.01,2013-11-21 23:40:00,
2013-11-21 18:45:00,42.4,27.0,0.00,SSW,203,0.0,0.0,54,0.00,,---,0.00,VWS V13.01,2013-11-21 23:45:00,
2013-11-21 18:50:00,42.4,27.0,0.00,South,175,0.0,0.0,54,0.00,,---,0.00,VWS V13.01,2013-11-21 23:50:00,
2013-11-21 18:55:00,42.4,27.0,0.00,SE,144,0.0,0.0,54,0.00,,---,0.00,VWS V13.01,2013-11-21 23:55:00,
2013-11-21 19:00:00,42.6,27.1,0.00,SE,145,0.0,0.0,54,0.00,,---,0.00,VWS V13.01,2013-11-22 00:00:00,
2013-11-21 19:05:00,42.6,27.1,0.00,SE,145,0.0,0.0,54,0.00,,---,0.00,VWS V13.01,2013-11-22 00:05:00,
2013-11-21 19:10:00,42.4,27.0,0.00,SE,145,0.0,0.0,54,0.00,,---,0.00,VWS V13.01,2013-11-22 00:10:00,
2013-11-21 19:15:00,42.3,26.8,0.00,SE,144,0.0,0.0,54,0.00,,---,0.00,VWS V13.01,2013-11-22 00:15:00,
2013-11-21 19:20:00,42.3,26.8,0.00,SE,144,0.0,0.0,54,0.00,,---,0.00,VWS V13.01,2013-11-22 00:20:00,
2013-11-21 19:25:00,42.3,26.8,0.00,SE,142,0.0,0.0,54,0.00,,---,0.00,VWS V13.01,2013-11-22 00:25:00,
2013-11-21 19:30:00,42.3,26.8,0.00,SE,143,0.0,0.0,54,0.00,,---,0.00,VWS V13.01,2013-11-22 00:30:00,
2013-11-21 19:35:00,42.3,26.8,0.00,SE,141,0.0,0.0,54,0.00,,---,0.00,VWS V13.01,2013-11-22 00:35:00,
2013-11-21 19:40:00,42.3,26.8,0.00,SE,141,0.0,0.0,54,0.00,,---,0.00,VWS V13.01,2013-11-22 00:40:00,
2013-11-21 19:45:00,42.1,27.1,0.00,SSE,165,0.0,0.0,55,0.00,,---,0.00,VWS V13.01,2013-11-22 00:45:00,
2013-11-21 19:50:00,42.3,27.3,0.00,SSE,165,0.0,0.0,55,0.00,,---,0.00,VWS V13.01,2013-11-22 00:50:00,
2013-11-21 19:55:00,42.3,27.3,0.00,SSW,194,0.0,0.0,55,0.00,,---,0.00,VWS V13.01,2013-11-22 00:55:00,
2013-11-21 20:00:00,42.3,27.3,0.00,South,179,0.0,0.0,55,0.00,,---,0.00,VWS V13.01,2013-11-22 01:00:00,
2013-11-21 20:04:00,42.3,27.3,0.00,South,170,0.0,0.0,55,0.00,,---,0.00,VWS V13.01,2013-11-22 01:04:00,
2013-11-21 20:09:00,42.3,27.3,0.00,South,170,0.0,0.0,55,0.00,,---,0.00,VWS V13.01,2013-11-22 01:09:00,
2013-11-21 20:14:00,42.3,27.3,0.00,South,170,0.0,0.0,55,0.00,,---,0.00,VWS V13.01,2013-11-22 01:14:00,
2013-11-21 20:19:00,42.3,27.3,0.00,South,171,0.0,0.0,55,0.00,,---,0.00,VWS V13.01,2013-11-22 01:19:00,
2013-11-21 20:24:00,42.1,27.1,0.00,South,171,0.0,0.0,55,0.00,,---,0.00,VWS V13.01,2013-11-22 01:24:00,
2013-11-21 20:29:00,42.1,27.5,0.00,SSE,168,0.0,0.0,56,0.00,,---,0.00,VWS V13.01,2013-11-22 01:29:00,
2013-11-21 20:34:00,42.3,27.7,0.00,SSE,168,0.0,0.0,56,0.00,,---,0.00,VWS V13.01,2013-11-22 01:34:00,
2013-11-21 20:39:00,42.3,27.7,0.00,SE,146,0.0,0.0,56,0.00,,---,0.00,VWS V13.01,2013-11-22 01:39:00,
2013-11-21 20:44:00,42.3,27.7,0.00,SSE,157,0.0,0.0,56,0.00,,---,0.00,VWS V13.01,2013-11-22 01:44:00,
2013-11-21 20:49:00,42.3,27.7,0.00,SSE,157,0.0,0.0,56,0.00,,---,0.00,VWS V13.01,2013-11-22 01:49:00,
2013-11-21 20:54:00,42.1,27.5,0.00,SSE,157,0.0,0.0,56,0.00,,---,0.00,VWS V13.01,2013-11-22 01:54:00,
2013-11-21 20:59:00,42.1,27.5,0.00,SSE,157,0.0,0.0,56,0.00,,---,0.00,VWS V13.01,2013-11-22 01:59:00,
2013-11-21 21:04:00,42.1,27.5,0.00,SSE,157,0.0,0.0,56,0.00,,---,0.00,VWS V13.01,2013-11-22 02:04:00,
2013-11-21 21:08:00,42.3,27.7,0.00,SSE,156,0.0,0.0,56,0.00,,---,0.00,VWS V13.01,2013-11-22 02:08:00,
2013-11-21 21:13:00,42.3,28.1,0.00,SSE,157,0.0,0.0,57,0.00,,---,0.00,VWS V13.01,2013-11-22 02:13:00,
2013-11-21 21:18:00,42.1,28.0,0.00,SSE,152,0.0,0.0,57,0.00,,---,0.00,VWS V13.01,2013-11-22 02:18:00,
2013-11-21 21:23:00,42.1,28.4,0.00,SSE,151,0.0,0.0,58,0.00,,---,0.00,VWS V13.01,2013-11-22 02:23:00,
2013-11-21 21:28:00,42.1,28.4,0.00,SSE,151,0.0,0.0,58,0.00,,---,0.00,VWS V13.01,2013-11-22 02:28:00,
2013-11-21 21:33:00,42.1,28.4,0.00,SSE,151,0.0,5.6,58,0.00,,---,0.00,VWS V13.01,2013-11-22 02:33:00,
2013-11-21 21:38:00,42.1,28.4,0.00,SSE,152,4.0,4.8,58,0.00,,---,0.00,VWS V13.01,2013-11-22 02:38:00,
2013-11-21 21:43:00,42.1,28.8,0.00,SSE,156,0.0,0.0,59,0.00,,---,0.00,VWS V13.01,2013-11-22 02:43:00,
2013-11-21 21:48:00,42.1,28.8,0.00,SSE,155,0.0,0.0,59,0.00,,---,0.00,VWS V13.01,2013-11-22 02:48:00,
2013-11-21 21:53:00,42.1,28.8,0.00,SE,142,0.0,0.0,59,0.00,,---,0.00,VWS V13.01,2013-11-22 02:53:00,
2013-11-21 21:58:00,42.1,28.8,0.00,SE,131,0.0,0.0,59,0.00,,---,0.00,VWS V13.01,2013-11-22 02:58:00,
2013-11-21 22:03:00,42.3,29.0,0.00,SE,135,0.0,0.0,59,0.00,,---,0.00,VWS V13.01,2013-11-22 03:03:00,
2013-11-21 22:08:00,42.3,29.0,0.00,SE,141,0.0,0.0,59,0.00,,---,0.00,VWS V13.01,2013-11-22 03:08:00,
2013-11-21 22:13:00,42.4,29.1,0.00,SE,142,0.0,0.0,59,0.00,,---,0.00,VWS V13.01,2013-11-22 03:13:00,
2013-11-21 22:18:00,42.4,29.5,0.00,SE,133,0.0,0.0,60,0.00,,---,0.00,VWS V13.01,2013-11-22 03:18:00,
2013-11-21 22:23:00,42.3,29.4,0.00,SE,133,0.0,0.0,60,0.00,,---,0.00,VWS V13.01,2013-11-22 03:23:00,
2013-11-21 22:28:00,42.3,29.4,0.00,SE,133,0.0,0.0,60,0.00,,---,0.00,VWS V13.01,2013-11-22 03:28:00,
2013-11-21 22:33:00,42.3,29.4,0.00,SE,135,0.0,0.0,60,0.00,,---,0.00,VWS V13.01,2013-11-22 03:33:00,
2013-11-21 22:38:00,42.1,29.2,0.00,SE,134,0.0,0.0,60,0.00,,---,0.00,VWS V13.01,2013-11-22 03:38:00,
2013-11-21 22:43:00,41.9,29.5,0.00,SE,135,0.0,0.0,61,0.00,,---,0.00,VWS V13.01,2013-11-22 03:43:00,
2013-11-21 22:48:00,41.5,29.5,0.00,SE,134,0.0,0.0,62,0.00,,---,0.00,VWS V13.01,2013-11-22 03:48:00,
2013-11-21 22:53:00,41.4,29.7,0.00,SE,134,0.0,0.0,63,0.00,,---,0.00,VWS V13.01,2013-11-22 03:53:00,
2013-11-21 22:58:00,41.2,29.9,0.00,SE,134,0.0,0.0,64,0.00,,---,0.00,VWS V13.01,2013-11-22 03:58:00,
2013-11-21 23:03:00,41.2,30.3,0.00,SE,134,0.0,0.0,65,0.00,,---,0.00,VWS V13.01,2013-11-22 04:03:00,
2013-11-21 23:08:00,41.0,30.5,0.00,SE,134,0.0,0.0,66,0.00,,---,0.00,VWS V13.01,2013-11-22 04:08:00,
2013-11-21 23:13:00,40.5,30.4,0.00,SE,134,0.0,0.0,67,0.00,,---,0.00,VWS V13.01,2013-11-22 04:13:00,
2013-11-21 23:18:00,40.3,30.6,0.00,SE,134,0.0,0.0,68,0.00,,---,0.00,VWS V13.01,2013-11-22 04:18:00,
2013-11-21 23:23:00,40.3,31.3,0.00,SE,135,0.0,0.0,70,0.00,,---,0.00,VWS V13.01,2013-11-22 04:23:00,
2013-11-21 23:28:00,40.1,31.5,0.00,SE,134,0.0,0.0,71,0.00,,---,0.00,VWS V13.01,2013-11-22 04:28:00,
2013-11-21 23:33:00,39.9,31.6,0.00,SE,134,0.0,0.0,72,0.00,,---,0.00,VWS V13.01,2013-11-22 04:33:00,
2013-11-21 23:38:00,39.9,32.3,0.00,SE,134,0.0,0.0,74,0.00,,---,0.00,VWS V13.01,2013-11-22 04:38:00,
2013-11-21 23:43:00,39.7,32.5,0.00,SE,134,0.0,0.0,75,0.00,,---,0.00,VWS V13.01,2013-11-22 04:43:00,
2013-11-21 23:48:00,39.7,32.8,0.00,SE,134,0.0,0.0,76,0.00,,---,0.00,VWS V13.01,2013-11-22 04:48:00,
2013-11-21 23:53:00,39.7,33.1,0.00,SE,134,0.0,0.0,77,0.00,,---,0.00,VWS V13.01,2013-11-22 04:53:00,
2013-11-21 23:58:00,39.6,33.3,0.00,SE,134,0.0,0.0,78,0.00,,---,0.00,VWS V13.01,2013-11-22 04:58:00,